Airfield :
LOGIN :

Register | Disclaimer

   EN    FR    IT 

 










Legend :    VFR   Marginal VFR   IFR   Intensive IFR   Very Intensive IFR
Visi :
Ceiling :
>= 8 km
>= 3000ft
5 to 8 km
1000 to 3000 ft
1500m to 5 km
500 to 1000 ft
800 to 1500m
200 to 500 ft
< 800m
< 200 ft
Symbols :   Thunderstorms  Fog  Heavy snow  Heavy precipitations  Wind > 20 kt
SIGMETs :     Misc.  Thunderstorms  Icing  Turbulence  Mountain Waves  Volcanic Ashes







- Airport Elevation : 1470 ft
- IATA code : KLU


LOWK - Klagenfurt

CURRENT METAR :
  • 171850Z AUTO VRB02KT 9999 FEW120 OVC140 23/19 Q1020 NOSIG

EXPIRED METARs :
  • 171820Z AUTO 29004KT 9999 SCT130 24/19 Q1020 NOSIG
  • 171750Z AUTO VRB02KT 9999 FEW100 25/18 Q1019 NOSIG
  • 171720Z VRB02KT 9999 FEW050 SCT300 26/18 Q1019 NOSIG
  • 171650Z VRB01KT 9999 FEW050 SCT300 26/17 Q1019 NOSIG
  • 171620Z VRB02KT 9999 FEW050 SCT300 27/17 Q1019 NOSIG

TAF TAF LOWK
Valid from the 17 at 18:00 until the 18 at 18:00 UTC


171715Z 1718/1818 VRB02KT 9999 FEW050 TX30/1815Z TN17/1805Z
PROB30
TEMPO 1802/1808 BKN010
TEMPO 1813/1816 12007KT
No reported NOTAMs for that airfield.



MET'MAP, your aeronautical weather chart ! - Copyright ORBIFLY December 2007 - Disclaimer

ORBIFLY MET'MAP TEAM :

Programming & Development : Alexandra Zaïnal
Concept & Development : Baudouin d'Aumeries
Co-Development & Prog : Marc-Olivier Méhu
Technical & hardware support : Manuel Goepfert

Contact : metmap@orbifly.com




SOURCES & CREDITS :

   NOAA